地図

経路データ

SID SEASON NUMBER BASIN SUBBASIN NAME ISO_TIME NATURE LAT LON WMO_WIND WMO_PRES WMO_AGENCY TRACK_TYPE DIST2LAND LANDFALL IFLAG USA_AGENCY USA_ATCF_ID USA_LAT USA_LON USA_RECORD USA_STATUS USA_WIND USA_PRES USA_SSHS USA_R34_NE USA_R34_SE USA_R34_SW USA_R34_NW USA_R50_NE USA_R50_SE USA_R50_SW USA_R50_NW USA_R64_NE USA_R64_SE USA_R64_SW USA_R64_NW USA_POCI USA_ROCI USA_RMW USA_EYE TOKYO_LAT TOKYO_LON TOKYO_GRADE TOKYO_WIND TOKYO_PRES TOKYO_R50_DIR TOKYO_R50_LONG TOKYO_R50_SHORT TOKYO_R30_DIR TOKYO_R30_LONG TOKYO_R30_SHORT TOKYO_LAND CMA_LAT CMA_LON CMA_CAT CMA_WIND CMA_PRES HKO_LAT HKO_LON HKO_CAT HKO_WIND HKO_PRES NEWDELHI_LAT NEWDELHI_LON NEWDELHI_GRADE NEWDELHI_WIND NEWDELHI_PRES NEWDELHI_CI NEWDELHI_DP NEWDELHI_POCI REUNION_LAT REUNION_LON REUNION_TYPE REUNION_WIND REUNION_PRES REUNION_TNUM REUNION_CI REUNION_RMW REUNION_R34_NE REUNION_R34_SE REUNION_R34_SW REUNION_R34_NW REUNION_R50_NE REUNION_R50_SE REUNION_R50_SW REUNION_R50_NW REUNION_R64_NE REUNION_R64_SE REUNION_R64_SW REUNION_R64_NW BOM_LAT BOM_LON BOM_TYPE BOM_WIND BOM_PRES BOM_TNUM BOM_CI BOM_RMW BOM_R34_NE BOM_R34_SE BOM_R34_SW BOM_R34_NW BOM_R50_NE BOM_R50_SE BOM_R50_SW BOM_R50_NW BOM_R64_NE BOM_R64_SE BOM_R64_SW BOM_R64_NW BOM_ROCI BOM_POCI BOM_EYE BOM_POS_METHOD BOM_PRES_METHOD NADI_LAT NADI_LON NADI_CAT NADI_WIND NADI_PRES WELLINGTON_LAT WELLINGTON_LON WELLINGTON_WIND WELLINGTON_PRES DS824_LAT DS824_LON DS824_STAGE DS824_WIND DS824_PRES TD9636_LAT TD9636_LON TD9636_STAGE TD9636_WIND TD9636_PRES TD9635_LAT TD9635_LON TD9635_WIND TD9635_PRES TD9635_ROCI NEUMANN_LAT NEUMANN_LON NEUMANN_CLASS NEUMANN_WIND NEUMANN_PRES MLC_LAT MLC_LON MLC_CLASS MLC_WIND MLC_PRES USA_GUST BOM_GUST BOM_GUST_PER REUNION_GUST REUNION_GUST_PER USA_SEAHGT USA_SEARAD_NE USA_SEARAD_SE USA_SEARAD_SW USA_SEARAD_NW STORM_SPEED STORM_DIR
1943259N24266 1943 64 NA GM NOT_NAMED 1943-09-15 18:00:00 TS 23.8000 -93.9000 40 hurdat_atl main 386 339 O_____________ hurdat_atl AL061943 23.8000 -93.9000 TS 40 0 12 343
1943259N24266 1943 64 NA GM NOT_NAMED 1943-09-15 21:00:00 TS 24.3901 -94.0973 main 339 298 P_____________ AL061943 24.3901 -94.0973 TS 42 0 13 343
1943259N24266 1943 64 NA GM NOT_NAMED 1943-09-16 00:00:00 TS 25.0000 -94.3000 45 hurdat_atl main 298 263 O_____________ hurdat_atl AL061943 25.0000 -94.3000 TS 45 0 13 343
1943259N24266 1943 64 NA GM NOT_NAMED 1943-09-16 03:00:00 TS 25.6300 -94.5075 main 263 239 P_____________ AL061943 25.6300 -94.5075 TS 50 0 13 343
1943259N24266 1943 64 NA GM NOT_NAMED 1943-09-16 06:00:00 TS 26.2000 -94.7000 55 hurdat_atl main 240 233 O_____________ hurdat_atl AL061943 26.2000 -94.7000 TS 55 0 11 343
1943259N24266 1943 64 NA GM NOT_NAMED 1943-09-16 09:00:00 TS 26.6449 -94.8578 main 229 203 P_____________ AL061943 26.6449 -94.8578 TS 60 0 8 341
1943259N24266 1943 64 NA GM NOT_NAMED 1943-09-16 12:00:00 TS 27.0000 -95.0000 65 hurdat_atl main 203 165 O_____________ hurdat_atl AL061943 27.0000 -95.0000 HU 65 1 8 339
1943259N24266 1943 64 NA GM NOT_NAMED 1943-09-16 15:00:00 TS 27.3450 -95.1650 main 165 131 P_____________ AL061943 27.3450 -95.1650 HU 70 1 7 336
1943259N24266 1943 64 NA GM NOT_NAMED 1943-09-16 18:00:00 TS 27.6000 -95.3000 75 hurdat_atl main 131 116 O_____________ hurdat_atl AL061943 27.6000 -95.3000 HU 75 1 4 336
1943259N24266 1943 64 NA GM NOT_NAMED 1943-09-16 21:00:00 TS 27.7525 -95.3726 main 106 106 P_____________ AL061943 27.7525 -95.3726 HU 77 1 2 335
1943259N24266 1943 64 NA GM NOT_NAMED 1943-09-17 00:00:00 TS 27.8000 -95.4000 80 hurdat_atl main 106 106 O_____________ hurdat_atl AL061943 27.8000 -95.4000 HU 80 1 1 309
1943259N24266 1943 64 NA GM NOT_NAMED 1943-09-17 03:00:00 TS 27.7875 -95.4150 main 106 106 P_____________ AL061943 27.7875 -95.4150 HU 82 1 1 0
1943259N24266 1943 64 NA GM NOT_NAMED 1943-09-17 06:00:00 TS 27.7000 -95.4000 85 hurdat_atl main 116 116 O_____________ hurdat_atl AL061943 27.7000 -95.4000 HU 85 2 2 167
1943259N24266 1943 64 NA GM NOT_NAMED 1943-09-17 09:00:00 TS 27.5800 -95.3651 main 126 126 P_____________ AL061943 27.5800 -95.3651 HU 85 2 3 164
1943259N24266 1943 64 NA GM NOT_NAMED 1943-09-17 12:00:00 TS 27.4000 -95.3000 85 hurdat_atl main 150 150 O_____________ hurdat_atl AL061943 27.4000 -95.3000 HU 85 2 5 163
1943259N24266 1943 64 NA GM NOT_NAMED 1943-09-17 15:00:00 TS 27.1500 -95.2150 main 184 184 P_____________ AL061943 27.1500 -95.2150 HU 85 2 5 160
1943259N24266 1943 64 NA GM NOT_NAMED 1943-09-17 18:00:00 TS 26.9000 -95.1000 85 hurdat_atl main 208 208 O_____________ hurdat_atl AL061943 26.9000 -95.1000 HU 85 2 5 153
1943259N24266 1943 64 NA GM NOT_NAMED 1943-09-17 21:00:00 TS 26.7050 -94.9574 main 223 223 P_____________ AL061943 26.7050 -94.9574 HU 82 1 4 138
1943259N24266 1943 64 NA GM NOT_NAMED 1943-09-18 00:00:00 TS 26.6000 -94.8000 80 hurdat_atl main 238 238 O_____________ hurdat_atl AL061943 26.6000 -94.8000 HU 80 1 3 112
1943259N24266 1943 64 NA GM NOT_NAMED 1943-09-18 03:00:00 TS 26.5975 -94.6575 main 248 248 P_____________ AL061943 26.5975 -94.6575 HU 77 1 3 69
1943259N24266 1943 64 NA GM NOT_NAMED 1943-09-18 06:00:00 TS 26.7000 -94.5000 75 hurdat_atl main 258 248 O_____________ hurdat_atl AL061943 26.7000 -94.5000 HU 75 1 4 49
1943259N24266 1943 64 NA GM NOT_NAMED 1943-09-18 09:00:00 TS 26.8775 -94.3001 main 248 237 P_____________ AL061943 26.8775 -94.3001 HU 75 1 5 42
1943259N24266 1943 64 NA GM NOT_NAMED 1943-09-18 12:00:00 TS 27.1000 -94.1000 75 hurdat_atl main 237 223 O_____________ hurdat_atl AL061943 27.1000 -94.1000 HU 75 1 5 37
1943259N24266 1943 64 NA GM NOT_NAMED 1943-09-18 15:00:00 TS 27.3000 -93.9424 main 228 216 P_____________ AL061943 27.3000 -93.9424 HU 72 1 5 34
1943259N24266 1943 64 NA GM NOT_NAMED 1943-09-18 18:00:00 TS 27.5000 -93.8000 70 hurdat_atl main 216 206 O_____________ hurdat_atl AL061943 27.5000 -93.8000 HU 70 1 5 32
1943259N24266 1943 64 NA GM NOT_NAMED 1943-09-18 21:00:00 TS 27.6999 -93.6649 main 206 203 P_____________ AL061943 27.6999 -93.6649 HU 65 1 5 34
1943259N24266 1943 64 NA GM NOT_NAMED 1943-09-19 00:00:00 TS 27.9000 -93.5000 60 hurdat_atl main 203 180 O_____________ hurdat_atl AL061943 27.9000 -93.5000 TS 60 0 5 41
1943259N24266 1943 64 NA GM NOT_NAMED 1943-09-19 03:00:00 TS 28.1000 -93.2650 main 180 150 P_____________ AL061943 28.1000 -93.2650 TS 60 0 6 48
1943259N24266 1943 64 NA GM NOT_NAMED 1943-09-19 06:00:00 TS 28.3000 -93.0000 60 hurdat_atl main 150 121 O_____________ hurdat_atl AL061943 28.3000 -93.0000 TS 60 0 6 49
1943259N24266 1943 64 NA GM NOT_NAMED 1943-09-19 09:00:00 TS 28.5000 -92.7425 main 118 91 P_____________ AL061943 28.5000 -92.7425 TS 55 0 6 48
1943259N24266 1943 64 NA GM NOT_NAMED 1943-09-19 12:00:00 TS 28.7000 -92.5000 50 hurdat_atl main 91 66 O_____________ hurdat_atl AL061943 28.7000 -92.5000 TS 50 0 6 46
1943259N24266 1943 64 NA GM NOT_NAMED 1943-09-19 15:00:00 TS 28.9075 -92.2700 main 66 48 P_____________ AL061943 28.9075 -92.2700 TS 45 0 5 41
1943259N24266 1943 64 NA GM NOT_NAMED 1943-09-19 18:00:00 TS 29.1000 -92.1000 40 hurdat_atl main 48 34 O_____________ hurdat_atl AL061943 29.1000 -92.1000 TS 40 0 4 31
1943259N24266 1943 64 NA GM NOT_NAMED 1943-09-19 21:00:00 TS 29.2724 -92.0199 main 34 24 P_____________ AL061943 29.2724 -92.0199 TS 37 0 3 16
1943259N24266 1943 64 NA GM NOT_NAMED 1943-09-20 00:00:00 TS 29.4000 -92.0000 35 hurdat_atl main 24 14 O_____________ hurdat_atl AL061943 29.4000 -92.0000 TS 35 0 2 7
1943259N24266 1943 64 NA GM NOT_NAMED 1943-09-20 03:00:00 TS 29.4725 -91.9925 main 14 14 P_____________ AL061943 29.4725 -91.9925 TS 30 -1 1 0
1943259N24266 1943 64 NA GM NOT_NAMED 1943-09-20 06:00:00 TS 29.5000 -92.0000 25 hurdat_atl main 14 14 O_____________ hurdat_atl AL061943 29.5000 -92.0000 TD 25 -1 0 325
1943259N24266 1943 64 NA GM NOT_NAMED 1943-09-20 09:00:00 TS 29.5050 -92.0025 main 14 14 P_____________ AL061943 29.5050 -92.0025 TD 25 -1 0 0
1943259N24266 1943 64 NA GM NOT_NAMED 1943-09-20 12:00:00 TS 29.5000 -92.0000 25 hurdat_atl main 14 O_____________ hurdat_atl AL061943 29.5000 -92.0000 TD 25 -1 0 0

IBTrACS Databaseについて

本データベースは、米国NOAAが公開する1842年以降の世界の熱帯低気圧のベストトラックデータアーカイブInternational Best Track Archive for Climate Stewardship (IBTrACS)を、ウェブで閲覧しやすい形式に変換したものです。

最終更新日:2021-12-03